Time;durP1;ratioP1;P1;durP2;ratioP2;P2;SDS_P1;SDS_P2;PMS_P1;PMS_P2;Temp;Humidity;BMP_temperature;BMP_pressure;BME280_temperature;BME280_humidity;BME280_pressure;Samples;Min_cycle;Max_cycle;Signal;HPM_P1;HPM_P2
2021/04/25 00:01:27;;;;;;;;;;;;;;;4.60;69.50;99957.75;4938235;29;19950;-81
2021/04/25 00:03:52;;;;;;;;;;;;;;;4.71;69.22;99960.41;4920968;29;19914;-81
2021/04/25 00:06:18;;;;;;;;;;;;;;;4.59;69.85;99956.06;4921927;29;19950;-81
2021/04/25 00:08:43;;;;;;;;;;;;;;;4.63;69.16;99956.09;4938205;29;19923;-81
2021/04/25 00:11:09;;;;;;;;;;;;;;;4.88;69.79;99963.09;4927473;29;20426;-81
2021/04/25 00:13:34;;;;;;;;;;;;;;;4.53;69.40;99960.28;4939940;29;20335;-80
2021/04/25 00:15:59;;;;;;;;;;;;;;;4.47;69.63;99961.09;4937305;29;19942;-81
2021/04/25 00:18:25;;;;;;;;;;;;;;;4.19;72.21;99955.72;4927454;29;20423;-81
2021/04/25 00:20:50;;;;;;;;;;;;;;;4.46;70.94;99951.72;4941840;29;19950;-81
2021/04/25 00:23:16;;;;;;;;;;;;;;;3.98;72.12;99956.38;4928199;29;19920;-81
2021/04/25 00:25:41;;;;;;;;;;;;;;;4.54;70.91;99952.63;4928637;29;19938;-82
2021/04/25 00:28:07;;;;;;;;;;;;;;;4.49;70.79;99944.06;4924105;28;19946;-81
2021/04/25 00:30:33;;;;;;;;;;;;;;;4.41;70.84;99935.53;4943866;29;19957;-81
2021/04/25 00:32:58;;;;;;;;;;;;;;;4.34;72.06;99938.88;4949359;29;19938;-81
2021/04/25 00:35:23;;;;;;;;;;;;;;;4.06;73.74;99943.72;4939676;29;19914;-81
2021/04/25 00:37:49;;;;;;;;;;;;;;;4.46;71.60;99944.06;4940360;29;19923;-81
2021/04/25 00:40:15;;;;;;;;;;;;;;;4.24;73.48;99952.38;4929071;29;19922;-81
2021/04/25 00:42:42;;;;;;;;;;;;;;;4.28;72.16;99943.91;4935790;28;22342;-81
2021/04/25 00:45:12;;;;;;;;;;;;;;;4.24;71.98;99952.38;4940632;29;19915;-81
2021/04/25 00:47:37;;;;;;;;;;;;;;;4.68;70.99;99950.19;4943203;29;19926;-81
2021/04/25 00:50:03;;;;;;;;;;;;;;;3.93;74.00;99952.09;4924146;29;19921;-81
2021/04/25 00:52:28;;;;;;;;;;;;;;;4.23;73.12;99948.13;4945836;29;19922;-81
2021/04/25 00:54:54;;;;;;;;;;;;;;;4.15;74.03;99948.91;4934670;28;20482;-81
2021/04/25 00:57:21;;;;;;;;;;;;;;;4.29;73.27;99941.38;4942990;28;19918;-81
2021/04/25 00:59:46;;;;;;;;;;;;;;;4.37;71.44;99939.72;4946190;29;19926;-81
2021/04/25 01:02:12;;;;;;;;;;;;;;;3.86;75.22;99942.69;4942348;29;19914;-81
2021/04/25 01:04:37;;;;;;;;;;;;;;;3.96;75.29;99935.13;4936055;29;19915;-81
2021/04/25 01:07:03;;;;;;;;;;;;;;;4.05;74.59;99944.56;4943674;29;20460;-80
2021/04/25 01:09:29;;;;;;;;;;;;;;;4.10;73.87;99936.94;4932249;28;19950;-82
2021/04/25 01:11:55;;;;;;;;;;;;;;;4.36;73.49;99942.28;4930989;29;19947;-80
2021/04/25 01:14:20;;;;;;;;;;;;;;;4.49;73.26;99941.53;4945673;29;19920;-81
2021/04/25 01:16:45;;;;;;;;;;;;;;;4.41;74.25;99935.53;4932476;29;19922;-81
2021/04/25 01:19:11;;;;;;;;;;;;;;;4.29;74.02;99940.50;4918535;29;19915;-81
2021/04/25 01:21:36;;;;;;;;;;;;;;;4.52;72.58;99939.03;4948612;29;19925;-81
2021/04/25 01:24:02;;;;;;;;;;;;;;;4.45;72.81;99946.59;4948844;29;19922;-81
2021/04/25 01:26:27;;;;;;;;;;;;;;;4.51;72.24;99942.41;4947072;29;19914;-81
2021/04/25 01:28:53;;;;;;;;;;;;;;;4.43;71.45;99949.16;4928230;29;19926;-81
2021/04/25 01:31:19;;;;;;;;;;;;;;;4.60;71.52;99942.47;4928929;29;19984;-80
2021/04/25 01:33:44;;;;;;;;;;;;;;;4.58;71.80;99949.28;4929507;29;19934;-80
2021/04/25 01:36:10;;;;;;;;;;;;;;;4.50;71.70;99950.91;4941633;29;19918;-81
2021/04/25 01:38:35;;;;;;;;;;;;;;;4.47;72.04;99945.78;4931625;29;20020;-80
2021/04/25 01:41:00;;;;;;;;;;;;;;;4.72;71.49;99954.47;4932386;29;19994;-80
2021/04/25 01:43:26;;;;;;;;;;;;;;;4.83;70.05;99954.53;4934265;29;19918;-80
2021/04/25 01:45:51;;;;;;;;;;;;;;;4.79;69.68;99952.81;4944070;28;19914;-81
2021/04/25 01:48:17;;;;;;;;;;;;;;;4.80;70.13;99950.25;4958615;29;19930;-80
2021/04/25 01:50:42;;;;;;;;;;;;;;;4.73;69.39;99950.22;4947679;29;19915;-80
2021/04/25 01:53:10;;;;;;;;;;;;;;;4.69;69.55;99951.88;4929754;29;19914;-81
2021/04/25 01:55:35;;;;;;;;;;;;;;;4.65;69.82;99946.75;4936458;29;19922;-80
2021/04/25 01:58:01;;;;;;;;;;;;;;;4.60;69.64;99945.00;4946845;29;19921;-81
2021/04/25 02:00:31;;;;;;;;;;;;;;;4.54;69.83;99942.44;4937227;28;20397;-80
2021/04/25 02:02:56;;;;;;;;;;;;;;;4.47;70.02;99938.13;4930323;29;20268;-81
2021/04/25 02:05:23;;;;;;;;;;;;;;;4.40;70.21;99944.00;4943096;28;19921;-80
2021/04/25 02:07:48;;;;;;;;;;;;;;;4.44;70.26;99940.63;4948317;29;19918;-80
2021/04/25 02:10:14;;;;;;;;;;;;;;;4.39;70.77;99937.22;4943960;29;19915;-81
2021/04/25 02:12:39;;;;;;;;;;;;;;;4.43;70.71;99941.50;4927100;29;19915;-81
2021/04/25 02:15:06;;;;;;;;;;;;;;;4.39;71.17;99944.84;4937527;29;19915;-81
2021/04/25 02:17:31;;;;;;;;;;;;;;;4.42;70.78;99947.44;4945906;29;20372;-81
2021/04/25 02:19:57;;;;;;;;;;;;;;;4.36;71.48;99945.69;4945613;29;19918;-81
2021/04/25 02:22:22;;;;;;;;;;;;;;;4.40;71.42;99944.00;4930674;29;20299;-81
2021/04/25 02:24:47;;;;;;;;;;;;;;;4.47;71.02;99950.00;4935822;29;19915;-80
2021/04/25 02:27:13;;;;;;;;;;;;;;;4.41;71.50;99945.72;4926742;29;20296;-81
2021/04/25 02:29:38;;;;;;;;;;;;;;;4.53;71.73;99945.81;4927928;28;20481;-80
2021/04/25 02:32:04;;;;;;;;;;;;;;;4.56;71.83;99940.75;4915219;29;19914;-81
2021/04/25 02:34:29;;;;;;;;;;;;;;;4.71;71.46;99944.25;4966516;28;20006;-81
2021/04/25 02:36:55;;;;;;;;;;;;;;;4.67;71.79;99947.63;4943740;29;19918;-80
2021/04/25 02:39:20;;;;;;;;;;;;;;;4.65;72.58;99939.94;4938000;28;20218;-81
2021/04/25 02:41:46;;;;;;;;;;;;;;;4.65;73.31;99936.53;4936679;29;19989;-81
2021/04/25 02:44:11;;;;;;;;;;;;;;;4.40;73.07;99941.44;4918922;29;20549;-81
2021/04/25 02:46:37;;;;;;;;;;;;;;;4.38;75.92;99936.38;4940209;29;19922;-81
2021/04/25 02:49:02;;;;;;;;;;;;;;;4.35;74.61;99935.47;4939452;29;19977;-81
2021/04/25 02:51:28;;;;;;;;;;;;;;;4.18;73.98;99938.72;4926768;29;19914;-81
2021/04/25 02:53:53;;;;;;;;;;;;;;;3.96;78.14;99936.81;4928116;29;19926;-81
2021/04/25 02:56:19;;;;;;;;;;;;;;;3.91;78.51;99949.50;4928909;29;19925;-81
2021/04/25 02:58:44;;;;;;;;;;;;;;;3.87;80.27;99942.66;4939381;29;19950;-80
2021/04/25 03:01:09;;;;;;;;;;;;;;;3.61;83.02;99951.75;4926462;29;20288;-81
2021/04/25 03:03:35;;;;;;;;;;;;;;;3.86;81.36;99951.16;4927841;29;19926;-81
2021/04/25 03:06:00;;;;;;;;;;;;;;;3.83;82.38;99948.59;4927218;29;19914;-80
2021/04/25 03:08:26;;;;;;;;;;;;;;;3.49;85.11;99950.75;4939794;29;19929;-80
2021/04/25 03:10:51;;;;;;;;;;;;;;;3.73;85.49;99945.06;4943414;29;20032;-81
2021/04/25 03:13:17;;;;;;;;;;;;;;;4.08;82.72;99943.72;4945568;29;19919;-81
2021/04/25 03:15:42;;;;;;;;;;;;;;;4.22;81.36;99936.19;4925969;29;19937;-81
2021/04/25 03:18:08;;;;;;;;;;;;;;;4.09;80.06;99943.75;4936533;29;19918;-82
2021/04/25 03:20:33;;;;;;;;;;;;;;;3.82;83.19;99944.31;4944927;29;19921;-81
2021/04/25 03:22:58;;;;;;;;;;;;;;;3.98;83.01;99941.09;4929669;28;19974;-81
2021/04/25 03:25:24;;;;;;;;;;;;;;;3.81;83.18;99939.19;4929463;29;20296;-80
2021/04/25 03:27:49;;;;;;;;;;;;;;;3.40;87.13;99940.47;4943257;29;20372;-81
2021/04/25 03:30:15;;;;;;;;;;;;;;;3.23;89.41;99940.25;4930628;29;20021;-81
2021/04/25 03:32:41;;;;;;;;;;;;;;;3.27;90.01;99942.00;4928825;29;20293;-80
2021/04/25 03:35:07;;;;;;;;;;;;;;;3.40;89.55;99939.59;4930636;29;19922;-81
2021/04/25 03:37:33;;;;;;;;;;;;;;;3.18;91.75;99936.78;4940813;29;19974;-80
2021/04/25 03:39:58;;;;;;;;;;;;;;;2.99;94.06;99932.28;4938684;29;20050;-81
2021/04/25 03:42:24;;;;;;;;;;;;;;;2.83;95.62;99932.09;4924390;29;20261;-80
2021/04/25 03:44:49;;;;;;;;;;;;;;;3.02;95.38;99937.44;4957952;29;19918;-80
2021/04/25 03:47:15;;;;;;;;;;;;;;;2.86;96.33;99936.38;4925922;29;19929;-80
2021/04/25 03:49:40;;;;;;;;;;;;;;;2.77;97.25;99937.06;4938046;29;19922;-81
2021/04/25 03:52:06;;;;;;;;;;;;;;;2.92;96.78;99933.91;4939783;29;19915;-80
2021/04/25 03:54:32;;;;;;;;;;;;;;;3.37;94.93;99939.56;4942331;29;19969;-80
2021/04/25 03:56:58;;;;;;;;;;;;;;;3.17;96.32;99939.31;4918888;29;19978;-81
2021/04/25 03:59:23;;;;;;;;;;;;;;;3.54;93.57;99935.53;4957433;29;19946;-81
2021/04/25 04:01:49;;;;;;;;;;;;;;;3.19;95.18;99935.94;4939461;29;20482;-81
2021/04/25 04:04:14;;;;;;;;;;;;;;;3.21;96.21;99944.47;4942589;29;19970;-80
2021/04/25 04:06:40;;;;;;;;;;;;;;;3.47;95.54;99941.41;4948824;29;20275;-81
2021/04/25 04:09:05;;;;;;;;;;;;;;;3.45;94.13;99937.97;4960896;29;19921;-80
2021/04/25 04:11:30;;;;;;;;;;;;;;;3.19;96.60;99933.41;4946637;29;19969;-80
2021/04/25 04:13:56;;;;;;;;;;;;;;;3.39;95.76;99933.66;4930793;29;20308;-81
2021/04/25 04:16:21;;;;;;;;;;;;;;;3.48;94.91;99931.22;4933840;29;19977;-81
2021/04/25 04:18:47;;;;;;;;;;;;;;;3.51;93.71;99938.03;4966466;29;19918;-81
2021/04/25 04:21:12;;;;;;;;;;;;;;;3.42;95.87;99933.72;4950600;28;20391;-81
2021/04/25 04:23:37;;;;;;;;;;;;;;;3.14;95.65;99937.56;4953615;29;19914;-81
2021/04/25 04:26:03;;;;;;;;;;;;;;;3.29;96.99;99932.69;4933770;28;20140;-80
2021/04/25 04:28:28;;;;;;;;;;;;;;;3.18;96.44;99931.69;4947126;29;19926;-81
2021/04/25 04:30:54;;;;;;;;;;;;;;;3.39;95.81;99940.44;4925795;28;20049;-80
2021/04/25 04:33:19;;;;;;;;;;;;;;;3.34;97.16;99942.94;4943295;29;19941;-80
2021/04/25 04:35:45;;;;;;;;;;;;;;;3.24;97.86;99943.63;4941100;29;19939;-81
2021/04/25 04:38:10;;;;;;;;;;;;;;;3.21;97.29;99939.38;4941504;29;19923;-80
2021/04/25 04:40:35;;;;;;;;;;;;;;;3.13;98.63;99938.44;4930175;29;20242;-81
2021/04/25 04:43:01;;;;;;;;;;;;;;;2.79;100.00;99945.59;4929543;29;19921;-80
2021/04/25 04:45:26;;;;;;;;;;;;;;;2.90;100.00;99938.97;4925574;29;19926;-80
2021/04/25 04:47:52;;;;;;;;;;;;;;;2.71;100.00;99939.53;4945207;29;20393;-80
2021/04/25 04:50:18;;;;;;;;;;;;;;;2.79;100.00;99940.50;4930019;28;19926;-80
2021/04/25 04:52:43;;;;;;;;;;;;;;;3.20;98.26;99936.81;4944096;29;19918;-80
2021/04/25 04:55:09;;;;;;;;;;;;;;;3.30;97.38;99938.63;4929483;29;19964;-80
2021/04/25 04:57:34;;;;;;;;;;;;;;;3.42;96.27;99949.00;4963342;28;19937;-80
2021/04/25 05:00:00;;;;;;;;;;;;;;;3.26;94.80;99945.41;4926774;29;19915;-81
2021/04/25 05:02:25;;;;;;;;;;;;;;;3.18;95.37;99946.13;4931207;29;19918;-80
2021/04/25 05:04:51;;;;;;;;;;;;;;;3.47;93.78;99946.50;4968005;28;20390;-81
2021/04/25 05:07:16;;;;;;;;;;;;;;;3.38;95.44;99943.84;4933647;29;20629;-81
2021/04/25 05:09:42;;;;;;;;;;;;;;;3.14;95.72;99942.66;4963122;28;19986;-81
2021/04/25 05:12:07;;;;;;;;;;;;;;;3.66;94.34;99942.47;4943775;29;19915;-81
2021/04/25 05:14:33;;;;;;;;;;;;;;;3.55;95.50;99949.97;4959094;28;19957;-81
2021/04/25 05:16:58;;;;;;;;;;;;;;;3.59;94.24;99956.81;4946258;29;20296;-81
2021/04/25 05:19:23;;;;;;;;;;;;;;;3.90;93.55;99952.03;4928734;28;20003;-81
2021/04/25 05:21:49;;;;;;;;;;;;;;;3.26;94.22;99957.25;4955745;28;20127;-81
2021/04/25 05:24:14;;;;;;;;;;;;;;;3.08;94.95;99953.63;4931595;29;19922;-81
2021/04/25 05:26:40;;;;;;;;;;;;;;;3.42;95.12;99958.28;4922980;29;19942;-81
2021/04/25 05:29:05;;;;;;;;;;;;;;;3.01;95.04;99964.56;4931591;29;19934;-81
2021/04/25 05:31:31;;;;;;;;;;;;;;;3.24;94.14;99962.34;4930595;29;19977;-80
2021/04/25 05:33:56;;;;;;;;;;;;;;;3.34;95.28;99965.84;4944489;29;20213;-81
2021/04/25 05:36:22;;;;;;;;;;;;;;;3.72;93.13;99970.56;4940174;29;19942;-81
2021/04/25 05:38:47;;;;;;;;;;;;;;;3.70;93.93;99972.22;4940960;29;20423;-82
2021/04/25 05:41:13;;;;;;;;;;;;;;;3.69;92.49;99971.34;4942632;29;19918;-81
2021/04/25 05:43:38;;;;;;;;;;;;;;;3.84;92.80;99974.94;4940663;29;19915;-80
2021/04/25 05:46:04;;;;;;;;;;;;;;;3.14;95.11;99978.31;4941875;29;19919;-80
2021/04/25 05:48:29;;;;;;;;;;;;;;;3.54;95.11;99978.84;4938988;29;19933;-81
2021/04/25 05:50:55;;;;;;;;;;;;;;;3.41;95.89;99976.97;4940314;29;19954;-80
2021/04/25 05:53:20;;;;;;;;;;;;;;;3.64;94.49;99980.63;4941351;29;19926;-80
2021/04/25 05:55:45;;;;;;;;;;;;;;;3.60;93.28;99978.88;4943947;29;19995;-81
2021/04/25 05:58:11;;;;;;;;;;;;;;;3.76;93.29;99980.81;4939655;28;20030;-81
2021/04/25 06:00:39;;;;;;;;;;;;;;;3.97;91.93;99981.88;4931702;29;19926;-81
2021/04/25 06:03:05;;;;;;;;;;;;;;;3.80;92.99;99985.91;4928515;29;19921;-81
2021/04/25 06:05:30;;;;;;;;;;;;;;;4.04;90.10;99982.75;4928029;29;20359;-80
2021/04/25 06:07:55;;;;;;;;;;;;;;;3.66;91.88;99994.25;4928247;29;20006;-81
2021/04/25 06:10:21;;;;;;;;;;;;;;;4.02;90.19;99992.97;4951777;29;19915;-81
2021/04/25 06:12:48;;;;;;;;;;;;;;;3.65;92.19;99986.56;4926434;28;20451;-80
2021/04/25 06:15:14;;;;;;;;;;;;;;;3.99;93.37;99987.81;4926631;29;19914;-80
2021/04/25 06:17:39;;;;;;;;;;;;;;;4.26;92.25;99992.34;4941041;29;20367;-81
2021/04/25 06:20:06;;;;;;;;;;;;;;;4.04;91.46;100003.16;4948106;28;19918;-81
2021/04/25 06:22:32;;;;;;;;;;;;;;;4.21;90.03;99999.09;4959275;28;19919;-80
2021/04/25 06:24:57;;;;;;;;;;;;;;;3.60;90.10;99999.25;4922252;29;19923;-81
2021/04/25 06:27:24;;;;;;;;;;;;;;;3.99;89.78;100003.09;4928211;29;19933;-80
2021/04/25 06:29:49;;;;;;;;;;;;;;;3.80;90.38;100006.31;4937890;29;19921;-80
2021/04/25 06:32:15;;;;;;;;;;;;;;;3.71;89.04;100007.88;4954604;29;19918;-81
2021/04/25 06:34:40;;;;;;;;;;;;;;;4.01;88.44;100009.06;4916348;29;19985;-80
2021/04/25 06:37:05;;;;;;;;;;;;;;;3.98;87.64;100006.50;4924304;28;19926;-80
2021/04/25 06:39:31;;;;;;;;;;;;;;;3.99;87.51;100013.28;4929392;28;20348;-80
2021/04/25 06:41:56;;;;;;;;;;;;;;;3.99;87.37;100018.41;4916685;29;20440;-81
2021/04/25 06:44:21;;;;;;;;;;;;;;;4.26;86.12;100017.84;4939974;29;19922;-80
2021/04/25 06:46:47;;;;;;;;;;;;;;;4.31;85.29;100017.88;4931902;28;19922;-80
2021/04/25 06:49:12;;;;;;;;;;;;;;;4.46;86.19;100023.13;4949338;29;19957;-80
2021/04/25 06:51:38;;;;;;;;;;;;;;;4.03;83.85;100029.50;4937360;29;19922;-80
2021/04/25 06:54:04;;;;;;;;;;;;;;;4.29;82.85;100032.31;4926286;29;19915;-81
2021/04/25 06:56:29;;;;;;;;;;;;;;;3.81;84.80;100036.91;4941309;28;19923;-80
2021/04/25 06:58:55;;;;;;;;;;;;;;;4.29;84.94;100024.66;4940204;29;19919;-80
2021/04/25 07:01:20;;;;;;;;;;;;;;;3.58;83.59;100026.44;4937809;28;19923;-80
2021/04/25 07:03:48;;;;;;;;;;;;;;;3.94;82.34;100020.03;4937469;29;19923;-80
2021/04/25 07:06:13;;;;;;;;;;;;;;;4.53;81.93;100022.34;4928157;29;19941;-80
2021/04/25 07:08:38;;;;;;;;;;;;;;;4.77;79.57;100025.97;4928536;28;19918;-80
2021/04/25 07:11:04;;;;;;;;;;;;;;;4.94;82.62;100026.91;4923488;29;19918;-80
2021/04/25 07:13:30;;;;;;;;;;;;;;;5.45;76.54;100027.22;4944759;29;19921;-80
2021/04/25 07:15:55;;;;;;;;;;;;;;;5.29;75.14;100031.44;4929604;29;19915;-81
2021/04/25 07:18:21;;;;;;;;;;;;;;;4.40;70.42;100035.81;4953735;29;19923;-80
2021/04/25 07:20:49;;;;;;;;;;;;;;;4.90;72.36;100037.94;4944055;29;20435;-80
2021/04/25 07:23:14;;;;;;;;;;;;;;;4.96;73.53;100038.00;4944467;29;20297;-80
2021/04/25 07:25:40;;;;;;;;;;;;;;;5.05;72.25;100036.38;4944724;29;20061;-80
2021/04/25 07:28:06;;;;;;;;;;;;;;;5.26;70.22;100040.75;4926938;29;19919;-81
2021/04/25 07:30:31;;;;;;;;;;;;;;;5.24;69.23;100033.06;4912470;29;19997;-81
2021/04/25 07:32:57;;;;;;;;;;;;;;;5.34;66.99;100034.84;4930860;29;19926;-81
2021/04/25 07:35:22;;;;;;;;;;;;;;;5.70;69.00;100040.13;4945051;29;20340;-81
2021/04/25 07:37:49;;;;;;;;;;;;;;;5.59;68.67;100040.09;4927536;29;20010;-80
2021/04/25 07:40:14;;;;;;;;;;;;;;;5.63;70.45;100031.59;4925736;29;19965;-81
2021/04/25 07:42:40;;;;;;;;;;;;;;;4.69;78.30;100045.44;4935818;28;20319;-81
2021/04/25 07:45:09;;;;;;;;;;;;;;;4.67;73.70;100040.31;4940994;29;20309;-81
2021/04/25 07:47:35;;;;;;;;;;;;;;;4.84;71.87;100045.56;4926716;29;19918;-81
2021/04/25 07:50:01;;;;;;;;;;;;;;;3.87;76.44;100053.94;4922673;29;19915;-80
2021/04/25 07:52:26;;;;;;;;;;;;;;;4.31;75.71;100051.03;4924015;28;19926;-80
2021/04/25 07:54:53;;;;;;;;;;;;;;;4.45;72.40;100049.50;4926623;29;19918;-80
2021/04/25 07:57:18;;;;;;;;;;;;;;;4.83;72.00;100041.28;4924581;29;19914;-80
2021/04/25 07:59:44;;;;;;;;;;;;;;;4.48;70.77;100041.00;4929994;29;19915;-80
2021/04/25 08:02:12;;;;;;;;;;;;;;;5.25;69.79;100045.03;4929731;29;19938;-81
2021/04/25 08:04:37;;;;;;;;;;;;;;;6.11;70.25;100035.19;4922980;28;19919;-81
2021/04/25 08:07:31;;;;;;;;;;;;;;;;;;;;;
2021/04/25 08:09:57;;;;;;;;;;;;;;;5.48;66.19;100047.72;4939153;29;19925;-81
2021/04/25 08:12:41;;;;;;;;;;;;;;;5.50;67.71;100051.13;4936702;29;19997;-81
2021/04/25 08:15:27;;;;;;;;;;;;;;;;;;;;;
2021/04/25 08:18:01;;;;;;;;;;;;;;;5.34;67.55;100039.97;4935249;28;19922;-80
2021/04/25 08:20:29;;;;;;;;;;;;;;;5.79;68.84;100046.16;4921440;29;19957;-81
2021/04/25 08:23:00;;;;;;;;;;;;;;;5.43;68.53;100049.38;4931256;28;19942;-81
2021/04/25 08:25:29;;;;;;;;;;;;;;;4.88;72.78;100054.97;4928522;29;19926;-80
2021/04/25 08:30:54;;;;;;;;;;;;;;;5.76;72.05;100051.25;4926808;29;19919;-81
2021/04/25 08:33:37;;;;;;;;;;;;;;;5.32;69.29;100049.31;4922265;29;20436;-81
2021/04/25 08:36:10;;;;;;;;;;;;;;;5.81;69.21;100052.09;4920036;29;19925;-82
2021/04/25 08:38:55;;;;;;;;;;;;;;;5.54;68.75;100059.66;4923040;29;19926;-81
2021/04/25 08:41:23;;;;;;;;;;;;;;;6.02;69.24;100053.94;4922756;29;19919;-81
2021/04/25 08:43:57;;;;;;;;;;;;;;;5.94;70.57;100049.63;4922715;29;19925;-81
2021/04/25 08:46:28;;;;;;;;;;;;;;;6.15;70.10;100054.81;4925216;29;19962;-81
2021/04/25 08:48:59;;;;;;;;;;;;;;;5.40;69.46;100055.31;4923510;29;19978;-81
2021/04/25 08:51:27;;;;;;;;;;;;;;;6.00;70.35;100045.41;4924102;29;20012;-82
2021/04/25 08:53:58;;;;;;;;;;;;;;;5.76;67.39;100053.81;4928060;29;19922;-82
2021/04/25 08:56:26;;;;;;;;;;;;;;;5.16;73.12;100052.63;4920242;29;19914;-81
2021/04/25 08:59:00;;;;;;;;;;;;;;;5.54;72.62;100057.09;4938784;28;20273;-81
2021/04/25 09:01:42;;;;;;;;;;;;;;;5.87;72.53;100056.41;4940195;29;19915;-81
2021/04/25 09:04:07;;;;;;;;;;;;;;;6.48;66.66;100055.78;4925602;29;19992;-80
2021/04/25 09:06:33;;;;;;;;;;;;;;;6.98;58.79;100048.94;4939585;29;19926;-80
2021/04/25 09:09:03;;;;;;;;;;;;;;;6.09;59.15;100047.16;4942894;28;20004;-80
2021/04/25 09:11:36;;;;;;;;;;;;;;;5.86;63.99;100055.56;4936655;29;19926;-79
2021/04/25 09:14:20;;;;;;;;;;;;;;;7.17;65.66;100055.78;4939560;29;20576;-80
2021/04/25 09:16:52;;;;;;;;;;;;;;;7.54;61.57;100053.97;4957918;28;19919;-81
2021/04/25 09:19:17;;;;;;;;;;;;;;;7.49;59.82;100044.63;4957261;29;19915;-80
2021/04/25 09:22:02;;;;;;;;;;;;;;;7.49;57.67;100057.44;4926456;29;19956;-80
2021/04/25 09:24:28;;;;;;;;;;;;;;;8.17;62.36;100045.19;4936479;29;20065;-80
2021/04/25 09:27:12;;;;;;;;;;;;;;;6.92;59.51;100057.50;4920524;29;19922;-80
2021/04/25 09:29:51;;;;;;;;;;;;;;;6.36;58.58;100061.69;4927667;28;19965;-80
2021/04/25 09:32:28;;;;;;;;;;;;;;;7.85;57.77;100051.31;4926857;29;19914;-79
2021/04/25 09:35:06;;;;;;;;;;;;;;;7.31;60.32;100045.50;4926281;29;20004;-80
2021/04/25 09:38:00;;;;;;;;;;;;;;;8.11;59.44;100047.78;4954787;28;19914;-81
2021/04/25 09:40:30;;;;;;;;;;;;;;;7.34;57.63;100042.91;4933525;28;20292;-81
2021/04/25 09:46:33;;;;;;;;;;;;;;;8.12;60.41;100040.09;4944088;29;19938;-80
2021/04/25 09:49:04;;;;;;;;;;;;;;;7.30;59.25;100038.69;4937024;29;19927;-81
2021/04/25 09:51:47;;;;;;;;;;;;;;;8.00;58.02;100041.84;4942633;29;19966;-80
2021/04/25 09:54:22;;;;;;;;;;;;;;;8.07;59.99;100039.25;4927718;29;19915;-80
2021/04/25 09:56:56;;;;;;;;;;;;;;;8.27;55.00;100040.84;4925304;29;19919;-81
2021/04/25 09:59:27;;;;;;;;;;;;;;;8.22;56.57;100034.91;4926179;28;20006;-81
2021/04/25 10:02:28;;;;;;;;;;;;;;;7.76;60.76;100035.97;4923199;29;19919;-80
2021/04/25 10:04:59;;;;;;;;;;;;;;;7.97;55.34;100032.47;4957407;29;20589;-80
2021/04/25 10:07:24;;;;;;;;;;;;;;;8.83;53.85;100031.09;4926398;29;20016;-81
2021/04/25 10:10:24;;;;;;;;;;;;;;;8.66;53.19;100029.50;4923812;28;19961;-80
2021/04/25 10:13:25;;;;;;;;;;;;;;;;;;;;;
2021/04/25 10:15:53;;;;;;;;;;;;;;;8.61;53.47;100031.25;4952268;28;20009;-81
2021/04/25 10:18:19;;;;;;;;;;;;;;;8.89;51.03;100034.44;4941546;29;19918;-80
2021/04/25 10:20:47;;;;;;;;;;;;;;;10.23;52.80;100026.06;4940549;29;20295;-81
2021/04/25 10:23:33;;;;;;;;;;;;;;;;;;;;;
2021/04/25 10:26:34;;;;;;;;;;;;;;;8.86;54.84;100036.19;4940245;28;20271;-81
2021/04/25 10:29:44;;;;;;;;;;;;;;;8.07;55.28;100033.25;4916877;29;20375;-81
2021/04/25 10:32:16;;;;;;;;;;;;;;;8.82;58.01;100029.38;4949331;29;19922;-80
2021/04/25 10:35:13;;;;;;;;;;;;;;;9.63;58.83;100026.00;4908211;29;19977;-80
2021/04/25 10:37:38;;;;;;;;;;;;;;;7.57;61.52;100021.50;4916291;29;19914;-79
2021/04/25 10:40:13;;;;;;;;;;;;;;;7.57;59.52;100018.94;4911381;29;19926;-80
2021/04/25 10:42:41;;;;;;;;;;;;;;;7.31;63.22;100017.31;4920021;29;19918;-80
2021/04/25 10:45:16;;;;;;;;;;;;;;;7.41;63.26;100024.13;4937238;29;19942;-80
2021/04/25 10:47:44;;;;;;;;;;;;;;;8.49;57.76;100015.94;4956657;28;20012;-80
2021/04/25 10:50:13;;;;;;;;;;;;;;;8.00;58.27;100017.03;4940564;29;20404;-80
2021/04/25 10:52:43;;;;;;;;;;;;;;;6.83;57.49;100013.97;4960547;28;19965;-80
2021/04/25 10:55:21;;;;;;;;;;;;;;;7.34;61.92;100014.72;4927886;29;19922;-80
2021/04/25 10:58:07;;;;;;;;;;;;;;;8.24;61.69;100008.38;4954709;28;20392;-80
2021/04/25 11:03:07;;;;;;;;;;;;;;;9.93;53.34;100004.19;4960043;29;19922;-80
2021/04/25 11:05:39;;;;;;;;;;;;;;;8.25;54.49;100001.50;4945775;29;19914;-80
2021/04/25 11:08:05;;;;;;;;;;;;;;;8.56;55.56;100003.03;4937933;29;20292;-80
2021/04/25 11:13:00;;;;;;;;;;;;;;;9.52;52.79;100000.41;4899398;29;19931;-88
2021/04/25 11:15:44;;;;;;;;;;;;;;;11.37;50.75;99998.44;4881522;29;19954;-87
2021/04/25 11:18:28;;;;;;;;;;;;;;;9.53;47.54;99998.66;4908849;29;19923;-87
2021/04/25 11:20:53;;;;;;;;;;;;;;;11.32;51.65;99986.53;4908668;29;20372;-87
2021/04/25 11:23:31;;;;;;;;;;;;;;;11.70;48.54;99994.34;4893439;29;19947;-88
2021/04/25 11:25:56;;;;;;;;;;;;;;;11.92;45.87;99989.59;4885585;29;20078;-89
2021/04/25 11:28:50;;;;;;;;;;;;;;;11.88;45.18;99992.28;4883270;29;20014;-89
2021/04/25 11:31:34;;;;;;;;;;;;;;;11.58;43.62;99986.84;4884034;29;20507;-88
2021/04/25 11:33:59;;;;;;;;;;;;;;;14.31;43.87;99973.81;4903225;29;19929;-88
2021/04/25 11:36:35;;;;;;;;;;;;;;;10.56;48.54;99984.41;4901055;29;20303;-88
2021/04/25 11:39:00;;;;;;;;;;;;;;;11.19;48.20;99971.28;4892223;29;20067;-87
2021/04/25 11:41:26;;;;;;;;;;;;;;;10.80;48.16;99983.16;4909255;29;20061;-87
2021/04/25 11:43:51;;;;;;;;;;;;;;;10.70;52.83;99974.75;4902049;29;20419;-88
2021/04/25 11:46:18;;;;;;;;;;;;;;;9.80;50.34;99989.78;4880967;29;20087;-87
2021/04/25 11:48:53;;;;;;;;;;;;;;;10.33;48.75;99983.06;4885490;29;19927;-87
2021/04/25 11:51:19;;;;;;;;;;;;;;;9.04;50.56;99991.50;4884415;29;19942;-88
2021/04/25 11:56:47;;;;;;;;;;;;;;;11.48;51.44;99978.44;4939828;23;20831;-87
2021/04/25 11:59:15;;;;;;;;;;;;;;;11.58;50.41;99978.25;4906648;29;19954;-88
2021/04/25 12:01:42;;;;;;;;;;;;;;;11.85;45.13;99982.84;4919397;29;20021;-88
2021/04/25 12:04:09;;;;;;;;;;;;;;;11.66;46.04;99971.22;4921586;29;19930;-87
2021/04/25 12:06:44;;;;;;;;;;;;;;;11.87;45.69;99980.25;4923068;29;20089;-88
2021/04/25 12:09:10;;;;;;;;;;;;;;;9.73;50.42;99983.00;4920816;29;19926;-88
2021/04/25 13:07:16;;;;;;;;;;;;;;;12.50;44.13;99942.69;5893443;23;19937;-86
2021/04/25 13:09:42;;;;;;;;;;;;;;;12.74;51.06;99948.94;4922029;28;20261;-87
2021/04/25 13:12:23;;;;;;;;;;;;;;;15.63;46.53;99934.69;4900336;28;19935;-86
2021/04/25 13:14:59;;;;;;;;;;;;;;;14.17;45.41;99932.78;4926888;28;19933;-87
2021/04/25 13:17:25;;;;;;;;;;;;;;;15.13;43.24;99937.41;4907945;29;19923;-88
2021/04/25 13:19:51;;;;;;;;;;;;;;;16.00;40.01;99925.50;4907874;29;19933;-86
2021/04/25 13:22:16;;;;;;;;;;;;;;;15.33;56.88;99926.31;4906868;29;19927;-90
2021/04/25 13:24:41;;;;;;;;;;;;;;;13.34;42.57;99937.00;4894137;29;19923;-87
2021/04/25 13:27:07;;;;;;;;;;;;;;;13.59;45.03;99944.91;4907195;29;19962;-87
2021/04/25 13:29:32;;;;;;;;;;;;;;;15.01;47.26;99929.16;4912752;28;20299;-88
2021/04/25 13:31:58;;;;;;;;;;;;;;;14.08;49.17;99938.28;4926037;28;19945;-86
2021/04/25 13:34:31;;;;;;;;;;;;;;;12.95;42.08;99943.22;4941960;28;19992;-93
2021/04/25 13:37:10;;;;;;;;;;;;;;;14.15;42.62;99950.13;4954403;28;19922;-94
2021/04/25 13:39:47;;;;;;;;;;;;;;;13.65;48.58;99944.75;4964365;28;19918;-95
2021/04/25 13:48:01;;;;;;;;;;;;;;;13.64;42.38;99940.47;4942295;29;19937;-94
2021/04/25 13:51:10;;;;;;;;;;;;;;;10.44;48.69;99932.22;4926970;29;19995;-94
2021/04/25 13:56:30;;;;;;;;;;;;;;;14.63;40.69;99920.09;5007992;23;19930;-93
2021/04/25 14:01:33;;;;;;;;;;;;;;;14.50;39.65;99919.63;4965177;28;19927;-92
2021/04/25 14:04:01;;;;;;;;;;;;;;;14.26;38.22;99915.28;4963457;28;20051;-92
2021/04/25 14:06:49;;;;;;;;;;;;;;;12.56;42.55;99921.84;4954375;29;19922;-93
2021/04/25 14:09:16;;;;;;;;;;;;;;;13.39;43.88;99911.88;4966002;28;20017;-93
2021/04/25 14:11:42;;;;;;;;;;;;;;;13.08;41.67;99922.19;4947342;29;19950;-93
2021/04/25 14:14:22;;;;;;;;;;;;;;;14.91;40.19;99913.97;4980483;28;19990;-94
2021/04/25 14:16:48;;;;;;;;;;;;;;;13.99;38.66;99918.69;4947031;29;19926;-93
2021/04/25 14:19:22;;;;;;;;;;;;;;;15.02;39.52;99907.50;4956406;28;19914;-92
2021/04/25 14:22:11;;;;;;;;;;;;;;;15.48;36.00;99903.19;4962884;28;19922;-93
2021/04/25 14:24:37;;;;;;;;;;;;;;;14.20;39.32;99890.41;4940974;29;19961;-92